aviador You're here:

KEKX Decoded Metar

ELIZABETH in KY, USA
Report Time2017-05-26 12:55:00
UTC Time2017-05-26 13:10:40
Flight Rules vfr VFR
Wind210° at 06 kt
W.Decomp.*RWY 23: 5.7 kt HW 1.8 kt LCW
Visibility9999 m
Phenomena:N/A
Clouds:N/A
Expected CloudBase > 1,600 ft AGL from Temp-Dew spread
CeilingNone
Temp17°C (ISA +3)
Dew Point13°C (77% RH)
AAT15.8°C
QNH1015 hPa
Density Alt1,302 ft
Elevation755 ft
Report Wrong Elevation
Raw Report
KEKX 261255Z AUTO 21006KT 10SM CLR 17/13 A2996 RMK AO2
T01650129=

Extra information for KEKX:More info

Airport Information Weather charts Add Link Nearby Venues Social comments

AIRNAV info for KEKX